Time;durP1;ratioP1;P1;durP2;ratioP2;P2;SDS_P1;SDS_P2;PMS_P1;PMS_P2;Temp;Humidity;BMP_temperature;BMP_pressure;BME280_temperature;BME280_humidity;BME280_pressure;Samples;Min_cycle;Max_cycle;Signal;HPM_P1;HPM_P2
2021/01/11 00:01:27;;;;;;;5.00;3.58;;;1.50;95.50;;;;;;5007841;28;20040;-85
2021/01/11 00:03:53;;;;;;;31.80;15.23;;;1.50;95.50;;;;;;4988795;27;20113;-85
2021/01/11 00:06:18;;;;;;;33.08;16.00;;;1.50;95.70;;;;;;4991995;28;20537;-86
2021/01/11 00:08:45;;;;;;;24.77;13.32;;;1.50;95.50;;;;;;5007847;28;20636;-85
2021/01/11 00:11:21;;;;;;;33.95;16.40;;;1.40;95.50;;;;;;5006016;28;20120;-85
2021/01/11 00:13:46;;;;;;;14.75;5.88;;;1.40;95.50;;;;;;4991217;28;20051;-84
2021/01/11 00:16:12;;;;;;;17.90;10.05;;;1.40;95.50;;;;;;5006962;28;20062;-84
2021/01/11 00:18:39;;;;;;;31.33;15.27;;;1.40;95.50;;;;;;4989312;28;20037;-84
2021/01/11 00:21:05;;;;;;;26.50;12.30;;;1.40;95.50;;;;;;5006104;28;20396;-84
2021/01/11 00:23:31;;;;;;;31.08;12.93;;;1.30;95.80;;;;;;5022972;28;20029;-84
2021/01/11 00:25:56;;;;;;;29.67;14.40;;;1.40;95.90;;;;;;5003323;28;20106;-84
2021/01/11 00:28:22;;;;;;;29.38;16.30;;;1.40;95.70;;;;;;5006665;28;20034;-86
2021/01/11 00:30:47;;;;;;;30.42;14.95;;;1.40;95.70;;;;;;4987176;28;20078;-84
2021/01/11 00:33:13;;;;;;;27.45;14.15;;;1.40;95.80;;;;;;4989349;27;20029;-84
2021/01/11 00:35:38;;;;;;;32.25;14.68;;;1.30;95.50;;;;;;4989587;28;20026;-85
2021/01/11 00:38:04;;;;;;;10.88;6.28;;;1.20;95.50;;;;;;5006657;28;20038;-84
2021/01/11 00:40:29;;;;;;;23.65;13.77;;;1.30;95.90;;;;;;5005237;27;20434;-86
2021/01/11 00:42:55;;;;;;;17.25;9.38;;;1.30;95.80;;;;;;5006846;28;20049;-84
2021/01/11 00:45:20;;;;;;;29.17;13.43;;;1.20;95.80;;;;;;5001323;28;20106;-83
2021/01/11 00:47:46;;;;;;;15.55;7.53;;;1.30;95.70;;;;;;5007413;28;20035;-84
2021/01/11 00:50:12;;;;;;;13.98;6.35;;;1.20;95.60;;;;;;4986988;28;20030;-84
2021/01/11 00:52:37;;;;;;;20.10;9.55;;;1.40;95.70;;;;;;5004954;28;20473;-83
2021/01/11 00:55:12;;;;;;;29.85;13.90;;;1.20;95.60;;;;;;4985490;28;20033;-84
2021/01/11 00:57:38;;;;;;;27.70;8.23;;;1.20;95.40;;;;;;5002689;27;20059;-84
2021/01/11 01:00:05;;;;;;;31.33;16.52;;;1.20;95.90;;;;;;5005524;28;20484;-84
2021/01/11 01:02:31;;;;;;;17.85;9.15;;;1.20;95.80;;;;;;4966479;28;20390;-84
2021/01/11 01:04:57;;;;;;;23.00;10.93;;;1.20;95.90;;;;;;4961599;27;20057;-85
2021/01/11 01:07:22;;;;;;;27.77;13.27;;;1.20;95.60;;;;;;5042977;28;20033;-84
2021/01/11 01:09:48;;;;;;;26.83;12.70;;;1.30;96.00;;;;;;4985230;28;20088;-84
2021/01/11 01:12:13;;;;;;;26.83;12.60;;;1.30;95.70;;;;;;5003412;27;20442;-84
2021/01/11 01:14:39;;;;;;;26.77;12.48;;;1.30;95.90;;;;;;4988418;28;20033;-84
2021/01/11 01:17:04;;;;;;;12.85;5.30;;;1.30;95.70;;;;;;4993491;27;20548;-84
2021/01/11 01:19:30;;;;;;;23.70;13.10;;;1.30;95.90;;;;;;5020144;28;20491;-83
2021/01/11 01:21:55;;;;;;;33.70;15.07;;;1.30;95.40;;;;;;5004329;28;20565;-84
2021/01/11 01:24:21;;;;;;;30.45;14.52;;;1.30;95.60;;;;;;5000272;28;20976;-84
2021/01/11 01:26:46;;;;;;;28.60;14.48;;;1.30;95.50;;;;;;4986007;28;20462;-84
2021/01/11 01:29:12;;;;;;;18.15;8.68;;;1.40;95.50;;;;;;5003483;28;20045;-84
2021/01/11 01:31:37;;;;;;;18.65;8.50;;;1.30;95.50;;;;;;5001675;27;20026;-85
2021/01/11 01:34:03;;;;;;;33.33;14.70;;;1.40;95.40;;;;;;5001266;27;20408;-84
2021/01/11 01:36:28;;;;;;;23.92;12.10;;;1.30;95.40;;;;;;4991811;28;20491;-84
2021/01/11 01:38:54;;;;;;;23.58;12.10;;;1.30;95.50;;;;;;4990073;28;20033;-84
2021/01/11 01:41:19;;;;;;;19.20;8.65;;;1.30;95.40;;;;;;4991632;27;20109;-85
2021/01/11 01:43:45;;;;;;;31.90;14.82;;;1.30;95.50;;;;;;4991993;28;20494;-82
2021/01/11 01:46:20;;;;;;;15.48;7.03;;;1.30;95.60;;;;;;4991431;28;20449;-83
2021/01/11 01:48:45;;;;;;;25.75;11.57;;;1.30;95.30;;;;;;5025087;27;20040;-83
2021/01/11 01:51:11;;;;;;;20.30;9.70;;;1.30;95.40;;;;;;5008080;28;20477;-84
2021/01/11 01:53:36;;;;;;;31.85;14.32;;;1.30;95.30;;;;;;5007080;28;20130;-83
2021/01/11 01:56:02;;;;;;;22.20;10.57;;;1.30;95.50;;;;;;4989770;27;20101;-84
2021/01/11 01:58:28;;;;;;;27.00;14.10;;;1.30;95.30;;;;;;4992096;28;20129;-83
2021/01/11 02:00:53;;;;;;;22.27;10.35;;;1.30;95.30;;;;;;5009073;28;20022;-82
2021/01/11 02:03:19;;;;;;;31.30;15.20;;;1.30;95.20;;;;;;5004371;28;20032;-83
2021/01/11 02:05:44;;;;;;;16.30;7.38;;;1.30;95.40;;;;;;4992219;28;20078;-84
2021/01/11 02:08:31;;;;;;;24.88;12.27;;;1.30;95.30;;;;;;4990319;28;20040;-84
2021/01/11 02:11:03;;;;;;;;;;;1.30;95.10;;;;;;4986946;28;20062;-84
2021/01/11 02:13:38;;;;;;;19.20;9.02;;;1.30;95.20;;;;;;5019253;28;20009;-84
2021/01/11 02:16:14;;;;;;;22.45;10.25;;;1.30;95.20;;;;;;4990383;27;20500;-83
2021/01/11 02:19:13;;;;;;;33.03;12.17;;;1.30;95.10;;;;;;5008690;28;20037;-83
2021/01/11 02:21:50;;;;;;;8.73;4.15;;;1.30;95.00;;;;;;5022751;28;20264;-83
2021/01/11 02:24:53;;;;;;;31.58;12.40;;;1.30;95.40;;;;;;5024178;27;20034;-84
2021/01/11 02:27:41;;;;;;;17.00;8.38;;;1.30;95.30;;;;;;5023371;27;20453;-81
2021/01/11 02:30:11;;;;;;;26.52;13.43;;;1.30;95.20;;;;;;5004587;27;20041;-81
2021/01/11 02:32:51;;;;;;;28.25;11.85;;;1.40;95.40;;;;;;5006367;28;20029;-82
2021/01/11 02:35:18;;;;;;;28.83;14.27;;;1.40;95.30;;;;;;4991144;28;20385;-83
2021/01/11 02:37:44;;;;;;;30.15;15.35;;;1.40;95.40;;;;;;5008068;28;20082;-82
2021/01/11 02:40:10;;;;;;;26.35;13.82;;;1.30;95.20;;;;;;4989508;27;20457;-83
2021/01/11 02:42:35;;;;;;;29.85;14.45;;;1.40;95.10;;;;;;4991666;28;20388;-83
2021/01/11 02:45:02;;;;;;;21.95;12.13;;;1.30;95.30;;;;;;4991469;27;20037;-83
2021/01/11 02:47:48;;;;;;;37.22;17.25;;;1.30;95.20;;;;;;4993735;28;20028;-84
2021/01/11 02:50:16;;;;;;;35.28;17.27;;;1.30;95.10;;;;;;5009196;27;20492;-84
2021/01/11 02:53:05;;;;;;;24.77;10.30;;;1.30;95.20;;;;;;4996172;28;20445;-83
2021/01/11 02:55:45;;;;;;;17.98;7.22;;;1.30;95.20;;;;;;5011839;27;20545;-83
2021/01/11 02:58:19;;;;;;;32.35;15.02;;;1.30;95.50;;;;;;5008604;27;20076;-82
2021/01/11 03:00:45;;;;;;;39.55;19.65;;;1.30;95.40;;;;;;4999497;28;20034;-83
2021/01/11 03:03:11;;;;;;;20.10;10.07;;;1.30;95.30;;;;;;5010404;28;20037;-82
2021/01/11 03:05:37;;;;;;;23.38;9.10;;;1.30;95.50;;;;;;4994978;28;20030;-83
2021/01/11 03:08:03;;;;;;;29.80;14.63;;;1.30;95.30;;;;;;4994197;27;20029;-82
2021/01/11 03:10:28;;;;;;;28.42;13.55;;;1.30;95.30;;;;;;5010750;28;20029;-83
2021/01/11 03:12:54;;;;;;;25.13;11.15;;;1.30;95.40;;;;;;4991525;28;20026;-82
2021/01/11 03:15:19;;;;;;;35.47;16.02;;;1.30;95.50;;;;;;4992105;27;20072;-83
2021/01/11 03:17:45;;;;;;;32.42;17.65;;;1.30;95.20;;;;;;5033979;27;20123;-84
2021/01/11 03:20:11;;;;;;;26.77;14.23;;;1.30;95.40;;;;;;4990883;27;20038;-83
2021/01/11 03:22:37;;;;;;;22.83;10.85;;;1.30;95.20;;;;;;5052331;28;20082;-83
2021/01/11 03:25:03;;;;;;;20.77;10.10;;;1.30;95.20;;;;;;5009111;27;20392;-83
2021/01/11 03:27:29;;;;;;;31.27;14.73;;;1.20;95.20;;;;;;5016118;28;20029;-83
2021/01/11 03:29:54;;;;;;;41.78;19.20;;;1.30;95.50;;;;;;5022555;28;20033;-83
2021/01/11 03:32:21;;;;;;;29.35;13.00;;;1.30;95.10;;;;;;4991391;27;20594;-83
2021/01/11 03:34:46;;;;;;;35.25;15.82;;;1.40;95.20;;;;;;4990544;28;20034;-82
2021/01/11 03:37:12;;;;;;;36.40;17.25;;;1.30;95.20;;;;;;5015891;27;20041;-82
2021/01/11 03:39:40;;;;;;;16.70;8.13;;;1.30;95.10;;;;;;4992786;28;20026;-82
2021/01/11 03:42:05;;;;;;;26.90;14.73;;;1.30;95.10;;;;;;4991701;28;20029;-82
2021/01/11 03:44:31;;;;;;;34.22;14.25;;;1.20;95.20;;;;;;5008765;28;20366;-81
2021/01/11 03:46:56;;;;;;;18.40;10.10;;;1.20;95.20;;;;;;4987212;28;20212;-81
2021/01/11 03:49:22;;;;;;;32.58;16.58;;;1.20;95.10;;;;;;5004991;27;20385;-81
2021/01/11 03:51:48;;;;;;;35.30;15.55;;;1.20;95.20;;;;;;4989625;28;20508;-82
2021/01/11 03:54:13;;;;;;;28.63;13.65;;;1.20;95.30;;;;;;5005210;28;20057;-82
2021/01/11 03:56:39;;;;;;;39.53;20.63;;;1.30;95.20;;;;;;4987297;28;20040;-82
2021/01/11 03:59:04;;;;;;;18.58;9.65;;;1.20;95.30;;;;;;4986227;27;20038;-81
2021/01/11 04:01:33;;;;;;;32.58;16.20;;;1.20;95.30;;;;;;5021775;28;20116;-82
2021/01/11 04:03:58;;;;;;;15.77;9.15;;;1.20;95.00;;;;;;4990485;28;20045;-81
2021/01/11 04:06:24;;;;;;;28.05;14.02;;;1.20;95.10;;;;;;5006273;27;20396;-82
2021/01/11 04:08:51;;;;;;;27.65;13.57;;;1.20;95.10;;;;;;4989625;28;20025;-81
2021/01/11 04:11:20;;;;;;;44.38;19.13;;;1.20;95.10;;;;;;4988999;27;20493;-82
2021/01/11 04:13:46;;;;;;;15.02;7.45;;;1.20;95.10;;;;;;5015513;28;20032;-82
2021/01/11 04:16:12;;;;;;;23.20;10.52;;;1.20;95.10;;;;;;4989320;28;20086;-82
2021/01/11 04:18:37;;;;;;;36.75;16.17;;;1.20;95.10;;;;;;4993422;28;20045;-81
2021/01/11 04:21:03;;;;;;;30.23;13.65;;;1.20;95.10;;;;;;5004812;27;20026;-82
2021/01/11 04:23:28;;;;;;;42.63;18.25;;;1.20;95.10;;;;;;5016482;28;20086;-82
2021/01/11 04:25:54;;;;;;;28.50;11.13;;;1.20;95.20;;;;;;5006104;27;20366;-82
2021/01/11 04:28:19;;;;;;;41.20;20.90;;;1.20;95.10;;;;;;4988044;27;20537;-83
2021/01/11 04:30:45;;;;;;;32.60;15.45;;;1.20;95.10;;;;;;5006374;28;20055;-82
2021/01/11 04:33:11;;;;;;;25.60;12.20;;;1.30;95.30;;;;;;4988285;28;20029;-82
2021/01/11 04:35:36;;;;;;;19.33;9.15;;;1.20;95.10;;;;;;4988579;28;20030;-82
2021/01/11 04:38:02;;;;;;;22.52;11.18;;;1.20;95.20;;;;;;4989044;28;20120;-83
2021/01/11 04:40:27;;;;;;;25.95;11.88;;;1.20;95.10;;;;;;5003389;28;20303;-82
2021/01/11 04:43:02;;;;;;;40.92;19.25;;;1.30;95.20;;;;;;4989176;27;20041;-82
2021/01/11 04:45:27;;;;;;;31.25;13.75;;;1.20;95.20;;;;;;5019595;27;20032;-82
2021/01/11 04:47:57;;;;;;;21.27;9.95;;;1.20;95.50;;;;;;5006087;28;20022;-82
2021/01/11 04:50:23;;;;;;;26.70;13.27;;;1.20;95.20;;;;;;5006174;28;20483;-81
2021/01/11 04:52:49;;;;;;;49.47;23.27;;;1.20;95.20;;;;;;4989140;28;20061;-82
2021/01/11 04:55:15;;;;;;;35.35;16.73;;;1.20;95.30;;;;;;4986154;27;20036;-81
2021/01/11 04:57:48;;;;;;;30.92;15.30;;;1.20;95.20;;;;;;4977540;28;20115;-82
2021/01/11 05:00:16;;;;;;;43.15;20.27;;;1.20;95.30;;;;;;5007570;28;20036;-82
2021/01/11 05:02:43;;;;;;;26.50;12.50;;;1.20;95.20;;;;;;4984155;28;20485;-82
2021/01/11 05:05:10;;;;;;;36.92;18.58;;;1.10;95.40;;;;;;4965719;27;20433;-81
2021/01/11 05:07:35;;;;;;;34.58;18.58;;;1.10;95.20;;;;;;4987682;28;20059;-82
2021/01/11 05:10:01;;;;;;;38.15;19.90;;;1.10;95.50;;;;;;5004550;28;20037;-81
2021/01/11 05:12:27;;;;;;;27.45;15.15;;;1.00;95.60;;;;;;4986774;27;20053;-81
2021/01/11 05:15:21;;;;;;;36.08;16.73;;;1.10;95.40;;;;;;4988362;28;20389;-81
2021/01/11 05:17:47;;;;;;;17.98;8.90;;;1.10;95.30;;;;;;5018088;28;20133;-82
2021/01/11 05:20:14;;;;;;;30.55;10.40;;;1.10;95.20;;;;;;4989122;27;20120;-82
2021/01/11 05:22:40;;;;;;;38.63;17.48;;;1.10;95.00;;;;;;5006397;28;20553;-82
2021/01/11 05:25:13;;;;;;;39.67;19.75;;;1.10;95.10;;;;;;4989502;27;20038;-81
2021/01/11 05:27:38;;;;;;;31.85;14.65;;;1.10;95.10;;;;;;4989643;28;20056;-82
2021/01/11 05:30:05;;;;;;;37.03;18.17;;;1.10;95.10;;;;;;4987008;28;20037;-82
2021/01/11 05:32:31;;;;;;;35.53;17.23;;;1.10;95.00;;;;;;4988832;28;20568;-80
2021/01/11 05:34:57;;;;;;;25.65;12.57;;;1.00;95.10;;;;;;5004259;27;20112;-81
2021/01/11 05:37:44;;;;;;;24.98;13.18;;;1.00;95.00;;;;;;5008564;28;20037;-81
2021/01/11 05:40:11;;;;;;;31.27;16.90;;;1.00;95.10;;;;;;5002470;28;20493;-82
2021/01/11 05:42:40;;;;;;;33.97;18.00;;;1.10;95.20;;;;;;4988675;28;20036;-82
2021/01/11 05:45:09;;;;;;;48.28;23.20;;;1.00;95.10;;;;;;5004156;27;20468;-83
2021/01/11 05:47:51;;;;;;;22.13;8.88;;;1.10;95.20;;;;;;5002409;28;20503;-82
2021/01/11 05:50:17;;;;;;;36.22;17.83;;;1.10;95.20;;;;;;4989595;28;20063;-82
2021/01/11 05:52:43;;;;;;;25.60;12.70;;;1.00;95.20;;;;;;4988047;28;20064;-81
2021/01/11 05:55:28;;;;;;;15.15;7.75;;;1.00;95.20;;;;;;4987110;27;20030;-81
2021/01/11 05:58:03;;;;;;;15.20;7.80;;;1.00;95.30;;;;;;4997768;28;20590;-81
2021/01/11 06:00:32;;;;;;;44.08;21.67;;;1.00;95.30;;;;;;4988281;28;20042;-81
2021/01/11 06:02:59;;;;;;;45.30;20.58;;;1.00;95.30;;;;;;4987034;27;20038;-83
2021/01/11 06:05:26;;;;;;;23.15;8.65;;;1.00;95.40;;;;;;5038946;28;20106;-82
2021/01/11 06:07:51;;;;;;;30.42;12.65;;;1.00;95.40;;;;;;4988196;28;20040;-82
2021/01/11 06:10:18;;;;;;;50.78;19.90;;;1.00;95.50;;;;;;5003793;28;20026;-82
2021/01/11 06:12:44;;;;;;;26.30;13.15;;;1.00;95.50;;;;;;4987986;28;20033;-82
2021/01/11 06:15:16;;;;;;;29.98;14.60;;;1.00;95.50;;;;;;5005591;28;20029;-81
2021/01/11 06:17:43;;;;;;;19.42;11.18;;;1.00;95.50;;;;;;4985555;28;20106;-82
2021/01/11 06:20:12;;;;;;;22.38;12.38;;;1.00;95.50;;;;;;4997770;27;20130;-81
2021/01/11 06:23:01;;;;;;;22.45;10.43;;;1.00;95.50;;;;;;5009019;28;20063;-81
2021/01/11 06:25:30;;;;;;;21.80;9.88;;;1.00;95.50;;;;;;5002217;28;20036;-81
2021/01/11 06:28:01;;;;;;;27.45;10.55;;;1.00;95.50;;;;;;5043836;27;20074;-81
2021/01/11 06:30:45;;;;;;;44.58;18.67;;;1.00;95.60;;;;;;5020352;28;20124;-82
2021/01/11 06:33:26;;;;;;;30.65;12.10;;;1.00;95.50;;;;;;5004725;27;20444;-82
2021/01/11 06:35:53;;;;;;;34.58;15.68;;;1.00;95.60;;;;;;4979571;28;20049;-82
2021/01/11 06:38:20;;;;;;;24.80;12.43;;;1.00;95.60;;;;;;4991650;27;20032;-82
2021/01/11 06:41:06;;;;;;;35.58;13.90;;;1.00;95.60;;;;;;4991249;28;20029;-82
2021/01/11 06:43:42;;;;;;;47.72;21.00;;;1.10;95.70;;;;;;5020383;28;20117;-81
2021/01/11 06:46:09;;;;;;;31.50;14.20;;;1.00;95.60;;;;;;5007120;27;20045;-81
2021/01/11 06:48:35;;;;;;;26.23;11.73;;;1.00;95.60;;;;;;5007468;28;20056;-82
2021/01/11 06:51:18;;;;;;;15.20;7.97;;;0.90;95.60;;;;;;5005904;28;20088;-81
2021/01/11 06:53:44;;;;;;;33.67;16.45;;;1.00;95.60;;;;;;5005951;28;20042;-81
2021/01/11 06:56:10;;;;;;;27.23;12.57;;;1.00;95.70;;;;;;4987405;27;20044;-81
2021/01/11 06:58:40;;;;;;;35.40;17.17;;;1.10;95.80;;;;;;4990667;28;20754;-82
2021/01/11 07:01:11;;;;;;;45.58;18.98;;;1.10;95.70;;;;;;5006131;28;20052;-81
2021/01/11 07:03:49;;;;;;;24.60;11.90;;;1.10;95.70;;;;;;4991365;28;20049;-81
2021/01/11 07:06:37;;;;;;;28.23;13.77;;;1.00;95.80;;;;;;5006525;27;20029;-82
2021/01/11 07:09:17;;;;;;;27.20;12.98;;;1.10;95.70;;;;;;5011844;27;20496;-81
2021/01/11 07:11:44;;;;;;;48.63;17.77;;;1.10;95.70;;;;;;5004711;28;20616;-80
2021/01/11 07:14:10;;;;;;;41.38;21.35;;;1.10;95.80;;;;;;4986288;27;20053;-81
2021/01/11 07:16:40;;;;;;;19.50;9.10;;;1.10;95.90;;;;;;4990802;28;20120;-81
2021/01/11 07:19:05;;;;;;;14.38;9.27;;;1.10;95.90;;;;;;5003239;27;20034;-82
2021/01/11 07:21:31;;;;;;;37.60;17.55;;;1.00;95.90;;;;;;5006089;28;20041;-81
2021/01/11 07:23:59;;;;;;;33.10;14.25;;;1.10;95.90;;;;;;5007253;28;20041;-81
2021/01/11 07:26:25;;;;;;;27.50;13.45;;;1.10;95.90;;;;;;5028498;28;20388;-82
2021/01/11 07:28:51;;;;;;;22.20;11.30;;;1.10;95.90;;;;;;4987784;28;20030;-82
2021/01/11 07:31:18;;;;;;;34.55;17.23;;;1.10;95.90;;;;;;5005862;27;20030;-82
2021/01/11 07:33:44;;;;;;;23.30;12.77;;;1.00;95.90;;;;;;5012774;28;20037;-81
2021/01/11 07:36:17;;;;;;;45.88;21.38;;;1.10;96.00;;;;;;5015568;27;20048;-82
2021/01/11 07:38:43;;;;;;;24.10;11.77;;;1.10;96.00;;;;;;5007715;27;20034;-82
2021/01/11 07:41:08;;;;;;;27.55;13.82;;;1.10;96.00;;;;;;4985820;27;20094;-83
2021/01/11 07:43:34;;;;;;;30.58;15.65;;;1.10;96.00;;;;;;4984705;28;20030;-82
2021/01/11 07:46:03;;;;;;;23.05;10.23;;;1.10;96.00;;;;;;5004437;28;20033;-82
2021/01/11 07:48:29;;;;;;;26.63;11.93;;;1.10;95.90;;;;;;4987546;28;20026;-82
2021/01/11 07:51:07;;;;;;;21.88;12.25;;;1.10;96.00;;;;;;4988646;28;20025;-82
2021/01/11 07:53:39;;;;;;;25.10;12.93;;;1.20;96.00;;;;;;5005646;28;20023;-82
2021/01/11 07:56:06;;;;;;;28.17;12.48;;;1.10;96.00;;;;;;4989684;27;20037;-83
2021/01/11 07:58:32;;;;;;;24.15;10.95;;;1.10;96.10;;;;;;4990083;28;20034;-82
2021/01/11 08:01:04;;;;;;;27.77;13.38;;;1.20;96.10;;;;;;4989099;28;20030;-82
2021/01/11 08:03:30;;;;;;;15.10;8.07;;;1.10;96.10;;;;;;5000919;28;20033;-82
2021/01/11 08:06:00;;;;;;;23.90;12.05;;;1.20;96.10;;;;;;4996182;28;20490;-82
2021/01/11 08:08:27;;;;;;;21.92;10.73;;;1.20;96.40;;;;;;5002983;28;20033;-82
2021/01/11 08:10:54;;;;;;;23.85;11.30;;;1.20;96.10;;;;;;5006367;28;20473;-81
2021/01/11 08:13:21;;;;;;;37.00;16.60;;;1.20;96.10;;;;;;4988513;27;20030;-82
2021/01/11 08:15:51;;;;;;;25.50;14.63;;;1.20;96.10;;;;;;4989743;28;20025;-83
2021/01/11 08:18:17;;;;;;;26.95;10.52;;;1.20;96.20;;;;;;4999865;27;20033;-81
2021/01/11 08:20:43;;;;;;;29.30;14.15;;;1.20;96.10;;;;;;5011158;28;20044;-82
2021/01/11 08:23:09;;;;;;;21.13;10.38;;;1.20;96.00;;;;;;4988418;27;20396;-82
2021/01/11 08:25:38;;;;;;;31.15;15.23;;;1.10;96.00;;;;;;4991007;28;20112;-82
2021/01/11 08:28:04;;;;;;;16.80;9.25;;;1.20;96.10;;;;;;4989248;27;20568;-81
2021/01/11 08:30:30;;;;;;;30.73;15.68;;;1.20;96.00;;;;;;4989763;28;20120;-82
2021/01/11 08:32:56;;;;;;;24.02;11.65;;;1.20;96.00;;;;;;4990356;28;20034;-82
2021/01/11 08:35:22;;;;;;;29.55;15.02;;;1.20;96.00;;;;;;4997444;27;20251;-83
2021/01/11 08:37:47;;;;;;;19.33;11.05;;;1.20;95.90;;;;;;5007620;28;20228;-82
2021/01/11 08:40:19;;;;;;;15.63;7.10;;;1.20;95.90;;;;;;4987356;28;20029;-82
2021/01/11 08:42:45;;;;;;;25.17;11.13;;;1.20;95.70;;;;;;5014274;28;20108;-82
2021/01/11 08:45:34;;;;;;;15.35;6.45;;;1.20;95.70;;;;;;4985363;28;20037;-82
2021/01/11 08:48:10;;;;;;;18.50;9.35;;;1.20;95.70;;;;;;5003280;28;20034;-81
2021/01/11 08:50:39;;;;;;;16.23;5.72;;;1.20;95.70;;;;;;5001963;28;20038;-81
2021/01/11 08:53:25;;;;;;;31.65;15.80;;;1.20;95.70;;;;;;5003981;28;20038;-80
2021/01/11 08:55:54;;;;;;;27.37;13.03;;;1.20;95.80;;;;;;4986444;27;20393;-82
2021/01/11 08:58:19;;;;;;;31.70;13.55;;;1.10;95.70;;;;;;5009869;28;20030;-82
2021/01/11 09:00:45;;;;;;;28.70;13.57;;;1.20;95.70;;;;;;4988204;28;20089;-84
2021/01/11 09:03:10;;;;;;;16.65;7.25;;;1.20;95.80;;;;;;5004115;28;20044;-83
2021/01/11 09:05:37;;;;;;;20.10;10.77;;;1.20;95.70;;;;;;5003120;28;20029;-83
2021/01/11 09:08:18;;;;;;;37.15;18.02;;;1.20;95.70;;;;;;4984274;28;20042;-82
2021/01/11 09:10:44;;;;;;;29.92;13.80;;;1.30;95.80;;;;;;5005883;28;20298;-83
2021/01/11 09:13:17;;;;;;;10.07;7.45;;;1.30;95.60;;;;;;5002014;28;20110;-81
2021/01/11 09:15:43;;;;;;;24.73;11.07;;;1.30;95.70;;;;;;5004704;28;20378;-83
2021/01/11 09:18:09;;;;;;;25.08;12.07;;;1.30;95.70;;;;;;5004590;28;20205;-82
2021/01/11 09:20:39;;;;;;;26.63;13.18;;;1.30;95.80;;;;;;4988205;28;20037;-83
2021/01/11 09:23:05;;;;;;;25.58;11.32;;;1.30;95.80;;;;;;5004237;27;20033;-83
2021/01/11 09:25:32;;;;;;;30.10;15.70;;;1.40;95.70;;;;;;5005207;28;20040;-84
2021/01/11 09:27:58;;;;;;;15.77;8.20;;;1.30;95.50;;;;;;4988523;28;20072;-82
2021/01/11 09:30:23;;;;;;;22.85;12.05;;;1.30;95.50;;;;;;5016189;28;20062;-83
2021/01/11 09:32:49;;;;;;;19.95;10.38;;;1.30;95.60;;;;;;4985360;28;20030;-83
2021/01/11 09:35:18;;;;;;;19.60;9.40;;;1.40;95.50;;;;;;4986103;27;20037;-82
2021/01/11 09:37:44;;;;;;;15.65;8.55;;;1.30;95.20;;;;;;4999289;28;20049;-83
2021/01/11 09:40:10;;;;;;;34.10;15.32;;;1.40;95.30;;;;;;5003375;28;20037;-84
2021/01/11 09:42:36;;;;;;;18.70;9.77;;;1.40;95.30;;;;;;5005184;28;20477;-84
2021/01/11 09:45:02;;;;;;;19.23;9.77;;;1.40;95.20;;;;;;4988039;28;20044;-84
2021/01/11 09:47:30;;;;;;;14.82;8.05;;;1.40;95.10;;;;;;4989245;28;20051;-84
2021/01/11 09:49:55;;;;;;;13.30;5.72;;;1.40;95.20;;;;;;5005141;28;20124;-84
2021/01/11 09:52:22;;;;;;;21.33;9.80;;;1.40;95.20;;;;;;5004196;28;20117;-82
2021/01/11 09:54:48;;;;;;;19.27;9.88;;;1.40;95.10;;;;;;4991150;28;20120;-83
2021/01/11 09:57:13;;;;;;;31.70;16.75;;;1.40;95.00;;;;;;4992557;28;20124;-82
2021/01/11 09:59:39;;;;;;;18.17;6.40;;;1.40;94.80;;;;;;4991486;27;20094;-83
2021/01/11 10:02:05;;;;;;;16.60;9.10;;;1.40;94.90;;;;;;4990923;28;20477;-82
2021/01/11 10:04:30;;;;;;;23.55;14.23;;;1.40;94.80;;;;;;4993589;28;20456;-83
2021/01/11 10:06:57;;;;;;;20.45;9.63;;;1.40;94.90;;;;;;4991050;28;20034;-83
2021/01/11 10:09:26;;;;;;;21.35;8.80;;;1.40;94.80;;;;;;5029862;28;20042;-81
2021/01/11 10:11:53;;;;;;;11.10;5.75;;;1.40;94.70;;;;;;5002053;28;20554;-83
2021/01/11 10:14:19;;;;;;;18.20;7.95;;;1.40;94.70;;;;;;5007561;28;20454;-82
2021/01/11 10:16:45;;;;;;;19.67;10.60;;;1.40;94.60;;;;;;5007169;28;20065;-81
2021/01/11 10:19:14;;;;;;;13.73;7.03;;;1.40;94.60;;;;;;5007968;27;20544;-82
2021/01/11 10:21:39;;;;;;;13.95;6.78;;;1.40;94.60;;;;;;5008427;28;20061;-82
2021/01/11 10:24:07;;;;;;;18.13;9.77;;;1.40;94.60;;;;;;4991744;27;20068;-84
2021/01/11 10:26:34;;;;;;;12.32;6.15;;;1.50;94.70;;;;;;5005263;27;20086;-83
2021/01/11 10:28:59;;;;;;;13.85;6.63;;;1.50;94.60;;;;;;5007891;28;20037;-85
2021/01/11 10:31:28;;;;;;;13.65;6.32;;;1.50;94.60;;;;;;5008758;28;20506;-86
2021/01/11 10:33:53;;;;;;;16.75;7.35;;;1.50;94.50;;;;;;5009213;28;20053;-84
2021/01/11 10:36:25;;;;;;;20.60;9.35;;;1.60;94.50;;;;;;4983969;28;20033;-85
2021/01/11 10:38:50;;;;;;;9.70;5.05;;;1.50;94.50;;;;;;4995977;27;20105;-85
2021/01/11 10:41:17;;;;;;;21.02;9.02;;;1.50;94.50;;;;;;5000520;27;20137;-84
2021/01/11 10:43:44;;;;;;;15.32;8.15;;;1.50;94.50;;;;;;4990434;28;20033;-84
2021/01/11 10:46:11;;;;;;;7.95;3.42;;;1.70;94.80;;;;;;4986207;28;20026;-84
2021/01/11 10:48:40;;;;;;;5.05;2.45;;;1.60;94.60;;;;;;5031624;28;20481;-84
2021/01/11 10:51:10;;;;;;;8.40;5.50;;;1.50;94.60;;;;;;5004288;28;20475;-85
2021/01/11 10:53:37;;;;;;;22.75;11.45;;;1.60;94.70;;;;;;5006668;27;20038;-85
2021/01/11 10:56:03;;;;;;;5.35;2.92;;;1.60;94.70;;;;;;5007166;28;20040;-84
2021/01/11 10:58:28;;;;;;;12.38;7.80;;;1.60;94.80;;;;;;5008100;28;20033;-84
2021/01/11 11:00:54;;;;;;;12.82;7.43;;;1.60;94.90;;;;;;4993035;27;20487;-85
2021/01/11 11:03:20;;;;;;;15.38;8.60;;;1.60;94.90;;;;;;4992897;27;20040;-84
2021/01/11 11:05:45;;;;;;;17.77;7.07;;;1.60;94.90;;;;;;5007766;28;20029;-84
2021/01/11 11:08:11;;;;;;;9.77;5.90;;;1.50;94.90;;;;;;4990824;28;20140;-84
2021/01/11 11:10:36;;;;;;;10.45;5.40;;;1.60;95.30;;;;;;4990279;28;20370;-84
2021/01/11 11:13:04;;;;;;;15.93;7.38;;;1.60;95.00;;;;;;4991060;28;20037;-84
2021/01/11 11:15:30;;;;;;;10.18;4.75;;;1.60;95.10;;;;;;4988144;28;20034;-85
2021/01/11 11:17:55;;;;;;;19.08;7.45;;;1.60;95.00;;;;;;5007234;27;20041;-84
2021/01/11 11:20:21;;;;;;;12.93;6.55;;;1.60;95.00;;;;;;4977643;27;20036;-82
2021/01/11 11:22:47;;;;;;;13.60;6.15;;;1.60;95.20;;;;;;4990545;27;20036;-83
2021/01/11 11:25:13;;;;;;;12.65;6.03;;;1.60;94.90;;;;;;5004390;28;20030;-83
2021/01/11 11:27:40;;;;;;;14.00;7.38;;;1.60;94.90;;;;;;5011413;28;20041;-82
2021/01/11 11:30:06;;;;;;;13.57;7.00;;;1.60;94.90;;;;;;4989622;28;20086;-83
2021/01/11 11:32:34;;;;;;;21.55;9.68;;;1.50;94.80;;;;;;5032532;28;20481;-84
2021/01/11 11:35:00;;;;;;;15.07;8.77;;;1.60;94.90;;;;;;4991748;28;20374;-83
2021/01/11 11:37:26;;;;;;;9.10;5.07;;;1.60;94.80;;;;;;5019236;27;20481;-83
2021/01/11 11:39:52;;;;;;;12.90;7.90;;;1.60;94.80;;;;;;4990758;27;20040;-84
2021/01/11 11:42:18;;;;;;;8.88;4.22;;;1.60;95.10;;;;;;5005586;28;20057;-82
2021/01/11 11:44:43;;;;;;;15.18;7.93;;;1.60;94.80;;;;;;4989002;27;20064;-83
2021/01/11 11:47:09;;;;;;;13.73;7.32;;;1.60;94.70;;;;;;5003243;28;20030;-83
2021/01/11 11:49:35;;;;;;;14.10;7.45;;;1.60;94.70;;;;;;5021431;28;20025;-82
2021/01/11 11:52:00;;;;;;;8.82;4.57;;;1.60;94.60;;;;;;5022413;28;20034;-83
2021/01/11 11:54:26;;;;;;;17.00;9.60;;;1.60;94.50;;;;;;5004736;28;20033;-83
2021/01/11 11:56:51;;;;;;;11.68;5.65;;;1.70;94.70;;;;;;5006879;27;20066;-82
2021/01/11 11:59:17;;;;;;;14.38;6.03;;;1.70;94.40;;;;;;4988058;27;20034;-83
2021/01/11 12:01:42;;;;;;;5.25;2.85;;;1.70;94.50;;;;;;5003748;27;20037;-84
2021/01/11 12:04:08;;;;;;;11.32;5.32;;;1.70;94.40;;;;;;5011168;28;20427;-84
2021/01/11 12:06:41;;;;;;;12.85;6.32;;;1.70;94.30;;;;;;4991410;28;20033;-84
2021/01/11 12:09:07;;;;;;;6.63;3.63;;;1.80;94.30;;;;;;5019530;28;20049;-82
2021/01/11 12:11:38;;;;;;;14.60;7.78;;;1.70;94.20;;;;;;5005271;28;20048;-83
2021/01/11 12:14:04;;;;;;;8.55;3.78;;;1.80;94.30;;;;;;5021253;28;20051;-84
2021/01/11 12:16:29;;;;;;;12.23;6.15;;;1.80;94.10;;;;;;4996889;28;20067;-83
2021/01/11 12:18:55;;;;;;;8.10;3.65;;;1.90;94.20;;;;;;4990579;28;21853;-84
2021/01/11 12:21:30;;;;;;;15.77;8.13;;;1.90;94.10;;;;;;5018508;27;20030;-85
2021/01/11 12:23:55;;;;;;;11.65;4.82;;;1.90;94.10;;;;;;5012318;28;22744;-84
2021/01/11 12:26:22;;;;;;;15.80;8.38;;;2.00;94.10;;;;;;4989829;28;20019;-83
2021/01/11 12:28:47;;;;;;;13.77;6.78;;;2.00;94.00;;;;;;5003991;28;20223;-84
2021/01/11 12:31:13;;;;;;;19.23;9.55;;;2.00;94.10;;;;;;4653945;28;10000192;-82
2021/01/11 12:33:39;;;;;;;6.05;4.07;;;2.00;94.10;;;;;;4987827;28;20461;-84
2021/01/11 12:36:07;;;;;;;12.63;7.82;;;2.10;94.00;;;;;;4986725;28;20025;-83
2021/01/11 12:38:32;;;;;;;7.30;4.10;;;2.10;93.90;;;;;;5004237;28;20593;-83
2021/01/11 12:40:58;;;;;;;12.10;6.03;;;2.10;93.90;;;;;;4996340;28;20437;-83
2021/01/11 12:43:23;;;;;;;11.23;4.43;;;2.10;93.90;;;;;;4985829;28;20052;-83
2021/01/11 12:45:49;;;;;;;16.52;7.97;;;2.20;93.80;;;;;;4987294;28;20029;-83